createdAt,value
2023-07-12T00:01:34.469Z,19.34
2023-07-12T00:04:05.239Z,19.34
2023-07-12T00:06:40.348Z,19.33
2023-07-12T00:09:15.394Z,19.33
2023-07-12T00:11:45.683Z,19.31
2023-07-12T00:14:15.994Z,19.30
2023-07-12T00:16:46.298Z,19.29
2023-07-12T00:19:17.704Z,19.28
2023-07-12T00:21:47.986Z,19.26
2023-07-12T00:24:18.274Z,19.27
2023-07-12T00:26:48.597Z,19.25
2023-07-12T00:29:18.960Z,19.23
2023-07-12T00:31:49.232Z,19.23
2023-07-12T00:34:19.474Z,19.22
2023-07-12T00:36:49.704Z,19.22
2023-07-12T00:39:19.896Z,19.21
2023-07-12T00:42:03.844Z,19.20
2023-07-12T00:44:37.690Z,19.20
2023-07-12T00:47:09.867Z,19.21
2023-07-12T00:49:40.196Z,19.20
2023-07-12T00:52:15.207Z,19.21
2023-07-12T00:54:55.504Z,19.21
2023-07-12T00:57:27.000Z,19.21
2023-07-12T00:59:59.362Z,19.22
2023-07-12T01:02:30.071Z,19.19
2023-07-12T01:05:01.997Z,19.23
2023-07-12T01:07:33.533Z,19.21
2023-07-12T01:10:04.270Z,19.19
2023-07-12T01:12:34.518Z,19.19
2023-07-12T01:15:07.000Z,19.18
2023-07-12T01:17:37.317Z,19.18
2023-07-12T01:20:09.521Z,19.18
2023-07-12T01:22:39.813Z,19.18
2023-07-12T01:25:11.189Z,19.15
2023-07-12T01:27:41.467Z,19.14
2023-07-12T01:30:13.536Z,19.16
2023-07-12T01:32:44.231Z,19.17
2023-07-12T01:35:16.584Z,19.17
2023-07-12T01:37:46.822Z,19.17
2023-07-12T01:40:17.272Z,19.17
2023-07-12T01:42:47.635Z,19.15
2023-07-12T01:45:18.028Z,19.14
2023-07-12T01:47:48.445Z,19.13
2023-07-12T01:50:18.950Z,19.13
2023-07-12T01:52:49.300Z,19.14
2023-07-12T01:55:19.831Z,19.11
2023-07-12T01:57:50.716Z,19.11
2023-07-12T02:00:21.144Z,19.11
2023-07-12T02:02:51.424Z,19.12
2023-07-12T02:05:23.005Z,19.12
2023-07-12T02:07:57.248Z,19.10
2023-07-12T02:10:29.011Z,19.07
2023-07-12T02:12:59.276Z,19.10
2023-07-12T02:15:29.644Z,19.11
2023-07-12T02:18:00.318Z,19.13
2023-07-12T02:20:30.752Z,19.14
2023-07-12T02:23:01.195Z,19.14
2023-07-12T02:25:31.505Z,19.14
2023-07-12T02:28:01.870Z,19.14
2023-07-12T02:30:33.409Z,19.14
2023-07-12T02:33:03.764Z,19.13
2023-07-12T02:35:34.825Z,19.11
2023-07-12T02:38:05.547Z,19.11
2023-07-12T02:40:35.805Z,19.10
2023-07-12T02:43:06.064Z,19.12
2023-07-12T02:45:36.391Z,19.11
2023-07-12T02:48:07.550Z,19.12
2023-07-12T02:50:37.803Z,19.11
2023-07-12T02:53:18.071Z,19.12
2023-07-12T02:55:52.453Z,19.11
2023-07-12T02:58:23.662Z,19.14
2023-07-12T03:00:59.179Z,19.15
2023-07-12T03:03:30.566Z,19.15
2023-07-12T03:06:06.228Z,19.14
2023-07-12T03:08:36.835Z,19.10
2023-07-12T03:11:08.234Z,19.11
2023-07-12T03:13:38.900Z,19.12
2023-07-12T03:16:10.305Z,19.14
2023-07-12T03:18:40.530Z,19.15
2023-07-12T03:21:12.189Z,19.16
2023-07-12T03:23:43.896Z,19.18
2023-07-12T03:26:14.285Z,19.19
2023-07-12T03:28:44.585Z,19.18
2023-07-12T03:31:17.173Z,19.20
2023-07-12T03:33:46.599Z,19.22
2023-07-12T03:36:17.449Z,19.21
2023-07-12T03:38:47.675Z,19.19
2023-07-12T03:41:19.809Z,19.17
2023-07-12T03:43:50.596Z,19.17
2023-07-12T03:46:21.215Z,19.18
2023-07-12T03:48:51.467Z,19.21
2023-07-12T03:51:23.792Z,19.23
2023-07-12T03:53:54.498Z,19.24
2023-07-12T03:56:24.729Z,19.25
2023-07-12T03:58:55.082Z,19.26
2023-07-12T04:01:25.376Z,19.23
2023-07-12T04:03:55.669Z,19.28
2023-07-12T04:06:25.951Z,19.31
2023-07-12T04:08:56.339Z,19.32
2023-07-12T04:11:28.373Z,19.32
2023-07-12T04:14:00.290Z,19.29
2023-07-12T04:16:31.380Z,19.27
2023-07-12T04:19:02.152Z,19.27
2023-07-12T04:21:32.520Z,19.30
2023-07-12T04:24:02.715Z,19.37
2023-07-12T04:26:33.985Z,19.43
2023-07-12T04:29:04.311Z,19.47
2023-07-12T04:31:34.777Z,19.49
2023-07-12T04:34:05.105Z,19.49
2023-07-12T04:36:35.639Z,19.52
2023-07-12T04:39:06.440Z,19.56
2023-07-12T04:41:36.843Z,19.59
2023-07-12T04:44:07.192Z,19.59
2023-07-12T04:46:39.366Z,19.58
2023-07-12T04:49:10.164Z,19.59
2023-07-12T04:51:40.385Z,19.59
2023-07-12T04:54:10.810Z,19.61
2023-07-12T04:56:41.056Z,19.62
2023-07-12T04:59:11.199Z,19.62
2023-07-12T05:01:41.426Z,19.63
2023-07-12T05:04:11.787Z,19.63
2023-07-12T05:06:41.998Z,19.62
2023-07-12T05:09:12.531Z,19.65
2023-07-12T05:11:42.641Z,19.67
2023-07-12T05:14:12.787Z,19.66
2023-07-12T05:16:42.959Z,19.67
2023-07-12T05:19:13.311Z,19.67
2023-07-12T05:21:43.502Z,19.74
2023-07-12T05:24:13.702Z,19.79
2023-07-12T05:26:43.937Z,19.89
2023-07-12T05:29:15.573Z,19.95
2023-07-12T05:31:46.147Z,20.01
2023-07-12T05:34:16.525Z,20.05
2023-07-12T05:36:46.937Z,20.33
2023-07-12T05:39:17.219Z,20.80
2023-07-12T05:41:47.385Z,21.23
2023-07-12T05:44:17.694Z,21.73
2023-07-12T05:46:47.918Z,22.15
2023-07-12T05:49:18.136Z,22.46
2023-07-12T05:51:48.394Z,22.75
2023-07-12T05:54:18.591Z,23.14
2023-07-12T05:56:48.882Z,23.48
2023-07-12T05:59:20.025Z,23.91
2023-07-12T06:01:50.251Z,24.34
2023-07-12T06:04:21.986Z,24.66
2023-07-12T06:06:53.864Z,24.88
2023-07-12T06:09:24.047Z,25.00
2023-07-12T06:11:54.221Z,25.16
2023-07-12T06:14:24.606Z,25.28
2023-07-12T06:16:55.058Z,25.41
2023-07-12T06:19:25.374Z,25.56
2023-07-12T06:21:55.767Z,25.84
2023-07-12T06:24:26.372Z,26.03
2023-07-12T06:26:56.994Z,26.20
2023-07-12T06:29:27.319Z,26.30
2023-07-12T06:31:57.603Z,26.34
2023-07-12T06:34:27.837Z,26.43
2023-07-12T06:36:58.747Z,26.23
2023-07-12T06:39:29.417Z,26.16
2023-07-12T06:41:59.771Z,26.21
2023-07-12T06:44:35.774Z,26.48
2023-07-12T06:47:06.423Z,26.73
2023-07-12T06:49:36.985Z,26.95
2023-07-12T06:52:08.365Z,27.14
2023-07-12T06:54:38.836Z,27.23
2023-07-12T06:57:09.561Z,27.37
2023-07-12T06:59:40.042Z,27.50
2023-07-12T07:02:12.188Z,27.68
2023-07-12T07:04:42.384Z,27.89
2023-07-12T07:07:12.544Z,28.01
2023-07-12T07:09:42.744Z,27.89
2023-07-12T07:12:13.093Z,28.01
2023-07-12T07:14:43.318Z,28.10
2023-07-12T07:17:13.616Z,27.95
2023-07-12T07:19:44.026Z,27.64
2023-07-12T07:22:14.290Z,27.61
2023-07-12T07:24:44.994Z,27.88
2023-07-12T07:27:15.422Z,28.17
2023-07-12T07:29:45.612Z,28.39
2023-07-12T07:32:15.829Z,28.65
2023-07-12T07:34:46.201Z,28.93
2023-07-12T07:37:17.064Z,29.06
2023-07-12T07:39:47.329Z,29.15
2023-07-12T07:42:17.564Z,29.23
2023-07-12T07:44:47.747Z,29.36
2023-07-12T07:47:18.283Z,29.45
2023-07-12T07:49:48.444Z,29.51
2023-07-12T07:52:18.844Z,29.51
2023-07-12T07:54:49.127Z,29.52
2023-07-12T07:57:19.328Z,29.44
2023-07-12T07:59:49.548Z,29.57
2023-07-12T08:02:19.995Z,29.68
2023-07-12T08:04:50.471Z,29.80
2023-07-12T08:07:20.755Z,29.94
2023-07-12T08:09:51.871Z,29.98
2023-07-12T08:12:22.386Z,29.91
2023-07-12T08:14:52.857Z,29.95
2023-07-12T08:17:23.635Z,30.01
2023-07-12T08:19:54.266Z,29.95
2023-07-12T08:22:25.412Z,29.59
2023-07-12T08:24:55.653Z,29.23
2023-07-12T08:27:25.975Z,28.81
2023-07-12T08:29:56.448Z,28.62
2023-07-12T08:34:59.765Z,29.15
2023-07-12T08:37:31.694Z,29.50
2023-07-12T08:40:00.741Z,29.64
2023-07-12T08:42:42.411Z,29.66
2023-07-12T08:45:22.724Z,29.43
2023-07-12T08:47:55.799Z,29.68
2023-07-12T08:50:27.613Z,30.13
2023-07-12T08:52:56.529Z,30.37
2023-07-12T08:55:29.291Z,30.20
2023-07-12T08:58:20.634Z,29.91
2023-07-12T09:00:58.439Z,29.57
2023-07-12T09:03:28.743Z,29.31
2023-07-12T09:05:59.979Z,29.11
2023-07-12T09:08:35.590Z,29.05
2023-07-12T09:11:06.208Z,29.18
2023-07-12T09:13:39.154Z,29.38
2023-07-12T09:16:31.046Z,29.35
2023-07-12T09:19:03.395Z,29.11
2023-07-12T09:21:39.613Z,28.98
2023-07-12T09:24:15.096Z,29.25
2023-07-12T09:26:46.426Z,29.16
2023-07-12T09:29:17.942Z,29.18
2023-07-12T09:31:49.032Z,28.91
2023-07-12T09:34:23.800Z,28.64
2023-07-12T09:36:59.969Z,28.61
2023-07-12T09:39:30.756Z,28.71
2023-07-12T09:42:03.361Z,28.99
2023-07-12T09:44:34.198Z,29.04
2023-07-12T09:47:07.629Z,29.21
2023-07-12T09:49:42.520Z,29.39
2023-07-12T09:52:19.718Z,29.54
2023-07-12T09:54:54.853Z,29.67
2023-07-12T09:57:40.396Z,29.50
2023-07-12T10:00:24.296Z,29.14
2023-07-12T10:03:11.784Z,28.94
2023-07-12T10:05:46.828Z,28.82
2023-07-12T10:08:18.617Z,28.57
2023-07-12T10:10:55.660Z,28.53
2023-07-12T10:13:37.632Z,28.70
2023-07-12T10:16:12.035Z,28.82
2023-07-12T10:18:42.848Z,28.72
2023-07-12T10:21:15.811Z,28.54
2023-07-12T10:23:51.285Z,28.48
2023-07-12T10:26:22.029Z,28.51
2023-07-12T10:28:57.161Z,28.44
2023-07-12T10:31:35.993Z,28.24
2023-07-12T10:34:14.592Z,28.19
2023-07-12T10:36:46.212Z,28.49
2023-07-12T10:39:16.438Z,28.75
2023-07-12T10:41:48.780Z,29.16
2023-07-12T10:44:22.268Z,29.63
2023-07-12T10:46:58.604Z,30.13
2023-07-12T10:49:44.857Z,30.77
2023-07-12T10:52:28.615Z,31.38
2023-07-12T10:55:20.221Z,31.96
2023-07-12T10:57:51.823Z,32.34
2023-07-12T11:00:25.096Z,32.77
2023-07-12T11:03:04.847Z,33.02
2023-07-12T11:05:44.625Z,32.86
2023-07-12T11:08:42.077Z,32.44
2023-07-12T11:11:42.288Z,32.26
2023-07-12T11:14:26.621Z,31.85
2023-07-12T11:17:15.827Z,31.12
2023-07-12T11:19:49.814Z,30.51
2023-07-12T11:22:22.213Z,30.54
2023-07-12T11:24:57.082Z,30.78
2023-07-12T11:27:54.982Z,30.80
2023-07-12T11:30:39.335Z,31.15
2023-07-12T11:33:17.357Z,31.53
2023-07-12T11:35:50.137Z,31.71
2023-07-12T11:38:25.604Z,32.14
2023-07-12T11:40:58.909Z,32.32
2023-07-12T11:43:35.682Z,32.14
2023-07-12T11:46:16.862Z,31.90
2023-07-12T11:48:57.875Z,31.53
2023-07-12T11:51:36.655Z,31.25
2023-07-12T11:54:21.113Z,31.00
2023-07-12T11:56:53.640Z,30.91
2023-07-12T11:59:31.146Z,31.29
2023-07-12T12:02:03.658Z,31.63
2023-07-12T12:04:35.787Z,32.00
2023-07-12T12:07:17.649Z,32.27
2023-07-12T12:09:49.691Z,32.60
2023-07-12T12:12:24.677Z,32.96
2023-07-12T12:14:57.386Z,33.27
2023-07-12T12:17:33.445Z,33.39
2023-07-12T12:20:16.064Z,33.59
2023-07-12T12:22:55.498Z,33.55
2023-07-12T12:25:31.025Z,33.85
2023-07-12T12:28:07.694Z,34.09
2023-07-12T12:30:40.207Z,33.87
2023-07-12T12:33:27.718Z,34.08
2023-07-12T12:45:11.584Z,36.43
2023-07-12T12:57:48.856Z,35.78
2023-07-12T12:59:46.362Z,35.06
2023-07-12T13:06:29.367Z,33.44
2023-07-12T13:21:56.055Z,34.86
2023-07-12T13:24:26.408Z,34.02
2023-07-12T13:26:56.577Z,33.50
2023-07-12T13:29:26.808Z,34.58
2023-07-12T13:31:57.043Z,36.02
2023-07-12T13:36:06.755Z,36.99
2023-07-12T13:37:27.500Z,37.65
2023-07-12T13:39:58.928Z,38.05
2023-07-12T13:42:42.946Z,37.98
2023-07-12T13:45:16.920Z,36.58
2023-07-12T13:47:50.871Z,35.76
2023-07-12T13:50:22.108Z,34.81
2023-07-12T13:52:52.381Z,34.78
2023-07-12T13:55:24.498Z,33.95
2023-07-12T13:57:54.730Z,33.00
2023-07-12T14:00:26.948Z,32.21
2023-07-12T14:08:36.734Z,31.20
2023-07-12T14:10:58.038Z,32.26
2023-07-12T14:13:28.220Z,33.23
2023-07-12T14:15:58.368Z,33.64
2023-07-12T14:18:28.649Z,33.87
2023-07-12T14:20:59.039Z,33.84
2023-07-12T14:23:29.853Z,34.57
2023-07-12T14:26:00.067Z,35.35
2023-07-12T14:28:40.400Z,36.57
2023-07-12T14:31:15.529Z,37.91
2023-07-12T14:33:46.572Z,38.74
2023-07-12T14:36:16.145Z,39.46
2023-07-12T14:38:47.244Z,40.08
2023-07-12T14:41:21.420Z,40.31
2023-07-12T14:43:52.507Z,40.40
2023-07-12T14:46:22.733Z,40.96
2023-07-12T14:48:52.958Z,41.11
2023-07-12T14:51:25.540Z,40.92
2023-07-12T14:53:55.709Z,41.13
2023-07-12T14:56:26.729Z,40.84
2023-07-12T14:58:57.400Z,40.82
2023-07-12T15:01:29.908Z,40.79
2023-07-12T15:04:08.560Z,40.99
2023-07-12T15:06:39.217Z,40.26
2023-07-12T15:09:14.020Z,39.00
2023-07-12T15:11:47.849Z,38.19
2023-07-12T15:14:18.391Z,38.51
2023-07-12T15:16:53.185Z,38.76
2023-07-12T15:19:23.471Z,38.21
2023-07-12T15:21:54.491Z,37.78
2023-07-12T15:24:23.260Z,37.83
2023-07-12T15:26:53.464Z,37.71
2023-07-12T15:29:24.329Z,37.91
2023-07-12T15:31:53.239Z,38.29
2023-07-12T15:34:23.757Z,38.23
2023-07-12T15:37:16.632Z,37.26
2023-07-12T15:39:47.330Z,35.81
2023-07-12T15:42:20.919Z,35.03
2023-07-12T15:44:53.039Z,33.91
2023-07-12T15:47:23.682Z,32.78
2023-07-12T15:49:53.993Z,31.97
2023-07-12T15:52:28.196Z,31.33
2023-07-12T15:54:58.419Z,30.69
2023-07-12T15:57:29.017Z,30.16
2023-07-12T15:59:59.794Z,29.74
2023-07-12T16:02:30.385Z,29.43
2023-07-12T16:05:00.583Z,29.13
2023-07-12T16:07:30.874Z,28.98
2023-07-12T16:10:01.119Z,28.94
2023-07-12T16:12:31.357Z,28.93
2023-07-12T16:15:01.737Z,28.99
2023-07-12T16:17:32.025Z,28.91
2023-07-12T16:20:02.346Z,28.81
2023-07-12T16:22:32.527Z,28.74
2023-07-12T16:25:03.939Z,28.66
2023-07-12T16:27:34.223Z,28.47
2023-07-12T16:30:05.886Z,28.23
2023-07-12T16:32:36.224Z,28.02
2023-07-12T16:35:09.546Z,27.89
2023-07-12T16:37:39.856Z,27.75
2023-07-12T16:40:12.003Z,27.60
2023-07-12T16:42:44.907Z,27.53
2023-07-12T16:45:28.782Z,27.50
2023-07-12T16:47:59.534Z,27.46
2023-07-12T16:50:30.220Z,27.42
2023-07-12T16:53:00.456Z,27.36
2023-07-12T16:55:34.150Z,27.29
2023-07-12T16:58:06.521Z,27.24
2023-07-12T17:00:36.896Z,27.17
2023-07-12T17:03:07.784Z,27.11
2023-07-12T17:05:38.340Z,27.05
2023-07-12T17:08:15.628Z,26.99
2023-07-12T17:10:46.458Z,26.98
2023-07-12T17:13:18.167Z,26.92
2023-07-12T17:15:49.553Z,26.88
2023-07-12T17:18:21.928Z,26.83
2023-07-12T17:20:53.685Z,26.80
2023-07-12T17:23:27.396Z,26.73
2023-07-12T17:26:01.299Z,26.62
2023-07-12T17:28:33.914Z,26.52
2023-07-12T17:31:13.819Z,26.44
2023-07-12T17:33:44.091Z,26.36
2023-07-12T17:36:15.650Z,26.28
2023-07-12T17:38:46.462Z,26.21
2023-07-12T17:41:20.330Z,26.13
2023-07-12T17:43:50.986Z,26.07
2023-07-12T17:46:21.542Z,26.00
2023-07-12T17:48:53.286Z,25.91
2023-07-12T17:51:25.396Z,25.80
2023-07-12T17:53:56.585Z,25.72
2023-07-12T17:56:26.939Z,25.64
2023-07-12T17:58:57.212Z,25.55
2023-07-12T18:01:30.530Z,25.47
2023-07-12T18:04:01.695Z,25.38
2023-07-12T18:06:34.188Z,25.32
2023-07-12T18:09:05.583Z,25.25
2023-07-12T18:11:41.117Z,25.17
2023-07-12T18:14:18.156Z,25.10
2023-07-12T18:16:48.784Z,25.01
2023-07-12T18:19:19.282Z,24.90
2023-07-12T18:21:50.242Z,24.78
2023-07-12T18:24:22.655Z,24.67
2023-07-12T18:26:53.116Z,24.56
2023-07-12T18:29:23.446Z,24.42
2023-07-12T18:31:54.384Z,24.34
2023-07-12T18:34:25.118Z,24.25
2023-07-12T18:36:55.573Z,24.14
2023-07-12T18:39:26.018Z,24.02
2023-07-12T18:41:58.593Z,23.93
2023-07-12T18:44:30.530Z,23.83
2023-07-12T18:47:02.511Z,23.70
2023-07-12T18:49:33.576Z,23.59
2023-07-12T18:52:04.700Z,23.47
2023-07-12T18:54:35.063Z,23.35
2023-07-12T18:57:05.739Z,23.24
2023-07-12T18:59:37.059Z,23.12
2023-07-12T19:02:16.385Z,22.97
2023-07-12T19:04:47.195Z,22.89
2023-07-12T19:07:22.493Z,22.78
2023-07-12T19:09:53.377Z,22.65
2023-07-12T19:12:24.937Z,22.53
2023-07-12T19:15:02.041Z,22.41
2023-07-12T19:17:33.132Z,22.30
2023-07-12T19:20:03.896Z,22.17
2023-07-12T19:22:34.327Z,22.07
2023-07-12T19:25:05.165Z,21.96
2023-07-12T19:27:43.184Z,21.85
2023-07-12T19:30:17.694Z,21.75
2023-07-12T19:32:48.066Z,21.64
2023-07-12T19:35:25.140Z,21.54
2023-07-12T19:37:56.192Z,21.44
2023-07-12T19:40:28.716Z,21.36
2023-07-12T19:42:59.749Z,21.26
2023-07-12T19:45:30.432Z,21.18
2023-07-12T19:48:01.056Z,21.10
2023-07-12T19:50:33.316Z,21.02
2023-07-12T19:53:06.578Z,20.94
2023-07-12T19:55:36.998Z,20.86
2023-07-12T19:58:07.313Z,20.79
2023-07-12T20:00:37.724Z,20.71
2023-07-12T20:03:09.523Z,20.63
2023-07-12T20:05:41.088Z,20.53
2023-07-12T20:08:11.444Z,20.43
2023-07-12T20:10:41.795Z,20.33
2023-07-12T20:13:12.215Z,20.23
2023-07-12T20:15:42.514Z,20.13
2023-07-12T20:18:12.879Z,20.02
2023-07-12T20:20:53.469Z,19.92
2023-07-12T20:23:24.029Z,19.82
2023-07-12T20:25:56.634Z,19.75
2023-07-12T20:28:29.426Z,19.67
2023-07-12T20:31:00.800Z,19.60
2023-07-12T20:33:31.504Z,19.54
2023-07-12T20:36:01.700Z,19.49
2023-07-12T20:38:32.402Z,19.45
2023-07-12T20:41:02.716Z,19.41
2023-07-12T20:43:33.329Z,19.37
2023-07-12T20:46:04.531Z,19.34
2023-07-12T20:48:37.149Z,19.30
2023-07-12T20:51:06.820Z,19.27
2023-07-12T20:53:37.064Z,19.21
2023-07-12T20:56:08.538Z,19.18
2023-07-12T20:58:39.046Z,19.14
2023-07-12T21:01:16.915Z,19.09
2023-07-12T21:03:48.122Z,19.08
2023-07-12T21:06:19.054Z,19.05
2023-07-12T21:08:49.806Z,18.98
2023-07-12T21:11:21.528Z,18.96
2023-07-12T21:13:52.799Z,18.91
2023-07-12T21:16:23.664Z,18.88
2023-07-12T21:18:54.423Z,18.83
2023-07-12T21:21:25.108Z,18.77
2023-07-12T21:23:55.819Z,18.71
2023-07-12T21:26:27.236Z,18.65
2023-07-12T21:28:57.874Z,18.60
2023-07-12T21:31:28.733Z,18.55
2023-07-12T21:33:59.728Z,18.50
2023-07-12T21:36:30.848Z,18.48
2023-07-12T21:39:01.660Z,18.44
2023-07-12T21:41:32.525Z,18.42
2023-07-12T21:44:03.038Z,18.37
2023-07-12T21:46:33.566Z,18.37
2023-07-12T21:49:04.264Z,18.35
2023-07-12T21:51:35.318Z,18.33
2023-07-12T21:54:07.147Z,18.30
2023-07-12T21:56:37.750Z,18.27
2023-07-12T21:59:08.231Z,18.24
2023-07-12T22:01:39.136Z,18.21
2023-07-12T22:04:09.913Z,18.19
2023-07-12T22:06:43.772Z,18.15
2023-07-12T22:09:14.575Z,18.13
2023-07-12T22:11:45.248Z,18.12
2023-07-12T22:14:16.011Z,18.07
2023-07-12T22:16:47.094Z,18.02
2023-07-12T22:19:17.982Z,17.98
2023-07-12T22:21:53.018Z,17.96
2023-07-12T22:24:23.499Z,17.95
2023-07-12T22:26:54.244Z,17.95
2023-07-12T22:29:24.771Z,17.94
2023-07-12T22:31:55.397Z,17.93
2023-07-12T22:34:25.929Z,17.93
2023-07-12T22:36:57.052Z,17.94
2023-07-12T22:39:28.307Z,17.93
2023-07-12T22:41:59.423Z,17.88
2023-07-12T22:44:30.046Z,17.88
2023-07-12T22:47:00.666Z,17.85
2023-07-12T22:49:31.144Z,17.84
2023-07-12T22:52:01.827Z,17.82
2023-07-12T22:54:32.591Z,17.80
2023-07-12T22:57:03.273Z,17.80
2023-07-12T22:59:34.452Z,17.79
2023-07-12T23:02:05.215Z,17.79
2023-07-12T23:04:36.429Z,17.78
2023-07-12T23:07:07.766Z,17.75
2023-07-12T23:09:38.385Z,17.74
2023-07-12T23:12:11.266Z,17.68
2023-07-12T23:14:44.683Z,17.61
2023-07-12T23:17:15.558Z,17.57
2023-07-12T23:19:46.348Z,17.51
2023-07-12T23:22:18.916Z,17.45
2023-07-12T23:24:50.295Z,17.39
2023-07-12T23:27:21.303Z,17.32
2023-07-12T23:29:51.994Z,17.25
2023-07-12T23:32:22.276Z,17.19
2023-07-12T23:34:52.641Z,17.13
2023-07-12T23:37:31.211Z,17.06
2023-07-12T23:40:01.453Z,16.95
2023-07-12T23:42:31.651Z,16.83
2023-07-12T23:45:01.857Z,16.76
2023-07-12T23:47:33.188Z,16.71
2023-07-12T23:50:04.240Z,16.65
2023-07-12T23:52:34.557Z,16.59
2023-07-12T23:55:05.784Z,16.51
2023-07-12T23:57:36.167Z,16.41
